sensor_id;sensor_type;location;lat;lon;timestamp;P1;durP1;ratioP1;P2;durP2;ratioP2
59828;SDS011;45708;51.848;107.620;2023-08-31T00:03:21;3.25;;;2.38;;
59828;SDS011;45708;51.848;107.620;2023-08-31T00:08:22;4.30;;;2.90;;
59828;SDS011;45708;51.848;107.620;2023-08-31T00:13:23;4.72;;;3.65;;
59828;SDS011;45708;51.848;107.620;2023-08-31T00:18:24;7.47;;;3.35;;
59828;SDS011;45708;51.848;107.620;2023-08-31T00:23:26;3.58;;;2.65;;
59828;SDS011;45708;51.848;107.620;2023-08-31T00:28:26;3.90;;;2.90;;
59828;SDS011;45708;51.848;107.620;2023-08-31T00:33:27;3.10;;;1.70;;
59828;SDS011;45708;51.848;107.620;2023-08-31T00:38:32;6.00;;;1.80;;
59828;SDS011;45708;51.848;107.620;2023-08-31T00:43:33;5.60;;;1.65;;
59828;SDS011;45708;51.848;107.620;2023-08-31T00:48:33;3.83;;;1.85;;
59828;SDS011;45708;51.848;107.620;2023-08-31T00:53:34;2.47;;;1.95;;
59828;SDS011;45708;51.848;107.620;2023-08-31T00:58:35;1.75;;;1.17;;
59828;SDS011;45708;51.848;107.620;2023-08-31T01:15:26;2.05;;;1.60;;
59828;SDS011;45708;51.848;107.620;2023-08-31T01:20:11;6.28;;;2.00;;
59828;SDS011;45708;51.848;107.620;2023-08-31T01:25:17;1.52;;;1.42;;
59828;SDS011;45708;51.848;107.620;2023-08-31T01:30:18;2.60;;;1.58;;
59828;SDS011;45708;51.848;107.620;2023-08-31T01:35:19;2.20;;;2.00;;
59828;SDS011;45708;51.848;107.620;2023-08-31T01:45:36;3.33;;;1.92;;
59828;SDS011;45708;51.848;107.620;2023-08-31T01:50:38;5.40;;;1.25;;
59828;SDS011;45708;51.848;107.620;2023-08-31T01:55:39;2.92;;;1.92;;
59828;SDS011;45708;51.848;107.620;2023-08-31T02:00:40;4.43;;;2.10;;
59828;SDS011;45708;51.848;107.620;2023-08-31T02:05:41;2.65;;;1.42;;
59828;SDS011;45708;51.848;107.620;2023-08-31T02:10:42;2.50;;;1.33;;
59828;SDS011;45708;51.848;107.620;2023-08-31T02:15:42;2.17;;;1.50;;
59828;SDS011;45708;51.848;107.620;2023-08-31T02:20:43;2.78;;;1.98;;
59828;SDS011;45708;51.848;107.620;2023-08-31T02:25:44;2.55;;;2.25;;
59828;SDS011;45708;51.848;107.620;2023-08-31T02:30:45;2.63;;;1.60;;
59828;SDS011;45708;51.848;107.620;2023-08-31T02:35:46;3.97;;;1.90;;
59828;SDS011;45708;51.848;107.620;2023-08-31T02:40:47;4.20;;;1.95;;
59828;SDS011;45708;51.848;107.620;2023-08-31T02:45:48;6.80;;;2.08;;
59828;SDS011;45708;51.848;107.620;2023-08-31T02:50:49;4.90;;;1.92;;
59828;SDS011;45708;51.848;107.620;2023-08-31T02:55:49;6.78;;;2.47;;
59828;SDS011;45708;51.848;107.620;2023-08-31T03:00:50;2.08;;;1.88;;
59828;SDS011;45708;51.848;107.620;2023-08-31T03:05:54;4.57;;;2.10;;
59828;SDS011;45708;51.848;107.620;2023-08-31T03:10:56;3.28;;;2.08;;
59828;SDS011;45708;51.848;107.620;2023-08-31T03:15:58;2.63;;;1.85;;
59828;SDS011;45708;51.848;107.620;2023-08-31T03:20:59;2.30;;;1.52;;
59828;SDS011;45708;51.848;107.620;2023-08-31T03:26:06;1.92;;;1.48;;
59828;SDS011;45708;51.848;107.620;2023-08-31T03:31:07;4.43;;;1.70;;
59828;SDS011;45708;51.848;107.620;2023-08-31T03:36:08;5.68;;;1.98;;
59828;SDS011;45708;51.848;107.620;2023-08-31T03:41:09;4.57;;;2.03;;
59828;SDS011;45708;51.848;107.620;2023-08-31T03:46:10;2.63;;;2.00;;
59828;SDS011;45708;51.848;107.620;2023-08-31T03:51:11;2.08;;;1.67;;
59828;SDS011;45708;51.848;107.620;2023-08-31T03:56:12;1.80;;;1.30;;
59828;SDS011;45708;51.848;107.620;2023-08-31T04:01:12;2.08;;;1.73;;
59828;SDS011;45708;51.848;107.620;2023-08-31T04:06:13;1.98;;;1.65;;
59828;SDS011;45708;51.848;107.620;2023-08-31T04:11:14;4.85;;;1.50;;
59828;SDS011;45708;51.848;107.620;2023-08-31T04:16:15;3.75;;;1.58;;
59828;SDS011;45708;51.848;107.620;2023-08-31T04:21:15;2.83;;;1.60;;
59828;SDS011;45708;51.848;107.620;2023-08-31T04:26:16;9.15;;;2.30;;
59828;SDS011;45708;51.848;107.620;2023-08-31T04:31:17;2.85;;;1.60;;
59828;SDS011;45708;51.848;107.620;2023-08-31T04:36:18;1.80;;;1.52;;
59828;SDS011;45708;51.848;107.620;2023-08-31T04:41:20;2.35;;;1.63;;
59828;SDS011;45708;51.848;107.620;2023-08-31T04:46:21;2.45;;;1.70;;
59828;SDS011;45708;51.848;107.620;2023-08-31T04:51:31;4.90;;;1.45;;
59828;SDS011;45708;51.848;107.620;2023-08-31T04:56:34;3.85;;;1.60;;
59828;SDS011;45708;51.848;107.620;2023-08-31T05:01:34;1.25;;;1.15;;
59828;SDS011;45708;51.848;107.620;2023-08-31T05:06:35;1.45;;;1.00;;
59828;SDS011;45708;51.848;107.620;2023-08-31T05:11:36;1.33;;;1.10;;
59828;SDS011;45708;51.848;107.620;2023-08-31T05:16:37;3.45;;;1.30;;
59828;SDS011;45708;51.848;107.620;2023-08-31T05:21:37;2.92;;;1.83;;
59828;SDS011;45708;51.848;107.620;2023-08-31T05:26:57;1.58;;;1.05;;
59828;SDS011;45708;51.848;107.620;2023-08-31T05:31:57;2.75;;;1.98;;
59828;SDS011;45708;51.848;107.620;2023-08-31T05:36:58;3.22;;;1.58;;
59828;SDS011;45708;51.848;107.620;2023-08-31T05:41:59;3.47;;;2.30;;
59828;SDS011;45708;51.848;107.620;2023-08-31T05:47:00;2.47;;;1.52;;
59828;SDS011;45708;51.848;107.620;2023-08-31T05:52:01;2.17;;;1.25;;
59828;SDS011;45708;51.848;107.620;2023-08-31T05:57:02;3.85;;;2.33;;
59828;SDS011;45708;51.848;107.620;2023-08-31T06:02:03;2.70;;;1.33;;
59828;SDS011;45708;51.848;107.620;2023-08-31T06:07:04;2.55;;;1.52;;
59828;SDS011;45708;51.848;107.620;2023-08-31T06:12:08;1.70;;;1.50;;
59828;SDS011;45708;51.848;107.620;2023-08-31T06:17:08;1.05;;;1.05;;
59828;SDS011;45708;51.848;107.620;2023-08-31T06:22:09;1.20;;;1.15;;
59828;SDS011;45708;51.848;107.620;2023-08-31T06:27:10;0.90;;;0.88;;
59828;SDS011;45708;51.848;107.620;2023-08-31T06:32:11;1.45;;;1.02;;
59828;SDS011;45708;51.848;107.620;2023-08-31T06:37:12;10.05;;;1.50;;
59828;SDS011;45708;51.848;107.620;2023-08-31T06:42:12;1.85;;;1.52;;
59828;SDS011;45708;51.848;107.620;2023-08-31T06:47:14;3.63;;;1.95;;
59828;SDS011;45708;51.848;107.620;2023-08-31T06:52:15;1.25;;;1.08;;
59828;SDS011;45708;51.848;107.620;2023-08-31T06:57:16;1.90;;;1.35;;
59828;SDS011;45708;51.848;107.620;2023-08-31T07:02:17;3.83;;;0.85;;
59828;SDS011;45708;51.848;107.620;2023-08-31T07:07:18;2.13;;;1.45;;
59828;SDS011;45708;51.848;107.620;2023-08-31T07:12:19;1.35;;;1.23;;
59828;SDS011;45708;51.848;107.620;2023-08-31T07:17:20;1.88;;;1.30;;
59828;SDS011;45708;51.848;107.620;2023-08-31T07:22:21;1.05;;;0.95;;
59828;SDS011;45708;51.848;107.620;2023-08-31T07:27:22;1.42;;;0.65;;
59828;SDS011;45708;51.848;107.620;2023-08-31T07:32:23;1.08;;;1.02;;
59828;SDS011;45708;51.848;107.620;2023-08-31T07:37:23;2.40;;;1.55;;
59828;SDS011;45708;51.848;107.620;2023-08-31T07:42:25;4.53;;;1.52;;
59828;SDS011;45708;51.848;107.620;2023-08-31T07:47:26;1.77;;;1.20;;
59828;SDS011;45708;51.848;107.620;2023-08-31T07:52:26;5.72;;;1.38;;
59828;SDS011;45708;51.848;107.620;2023-08-31T07:57:27;2.20;;;1.30;;
59828;SDS011;45708;51.848;107.620;2023-08-31T08:02:28;2.90;;;1.30;;
59828;SDS011;45708;51.848;107.620;2023-08-31T08:07:29;1.65;;;1.30;;
59828;SDS011;45708;51.848;107.620;2023-08-31T08:12:36;1.25;;;1.05;;
59828;SDS011;45708;51.848;107.620;2023-08-31T08:17:38;1.52;;;1.25;;
59828;SDS011;45708;51.848;107.620;2023-08-31T08:22:39;2.42;;;1.48;;
59828;SDS011;45708;51.848;107.620;2023-08-31T08:27:43;1.40;;;1.20;;
59828;SDS011;45708;51.848;107.620;2023-08-31T08:32:44;1.55;;;1.20;;
59828;SDS011;45708;51.848;107.620;2023-08-31T08:37:44;1.15;;;1.05;;
59828;SDS011;45708;51.848;107.620;2023-08-31T08:42:46;1.77;;;0.77;;
59828;SDS011;45708;51.848;107.620;2023-08-31T08:47:48;1.20;;;1.10;;
59828;SDS011;45708;51.848;107.620;2023-08-31T08:52:49;2.33;;;1.30;;
59828;SDS011;45708;51.848;107.620;2023-08-31T08:57:50;4.25;;;1.35;;
59828;SDS011;45708;51.848;107.620;2023-08-31T09:02:51;6.85;;;1.02;;
59828;SDS011;45708;51.848;107.620;2023-08-31T09:08:05;2.13;;;1.60;;
59828;SDS011;45708;51.848;107.620;2023-08-31T09:13:08;1.23;;;1.13;;
59828;SDS011;45708;51.848;107.620;2023-08-31T09:18:26;3.17;;;1.52;;
59828;SDS011;45708;51.848;107.620;2023-08-31T09:23:28;1.73;;;1.40;;
59828;SDS011;45708;51.848;107.620;2023-08-31T09:28:29;1.48;;;1.10;;
59828;SDS011;45708;51.848;107.620;2023-08-31T09:33:30;2.80;;;1.20;;
59828;SDS011;45708;51.848;107.620;2023-08-31T09:38:31;1.92;;;1.10;;
59828;SDS011;45708;51.848;107.620;2023-08-31T09:43:32;2.30;;;0.93;;
59828;SDS011;45708;51.848;107.620;2023-08-31T09:48:33;1.40;;;1.30;;
59828;SDS011;45708;51.848;107.620;2023-08-31T09:53:35;1.88;;;1.05;;
59828;SDS011;45708;51.848;107.620;2023-08-31T09:58:37;3.95;;;1.23;;
59828;SDS011;45708;51.848;107.620;2023-08-31T10:03:39;2.50;;;1.40;;
59828;SDS011;45708;51.848;107.620;2023-08-31T10:08:40;1.40;;;1.30;;
59828;SDS011;45708;51.848;107.620;2023-08-31T10:13:42;1.85;;;1.45;;
59828;SDS011;45708;51.848;107.620;2023-08-31T10:23:50;2.78;;;1.88;;
59828;SDS011;45708;51.848;107.620;2023-08-31T10:28:51;5.03;;;1.63;;
59828;SDS011;45708;51.848;107.620;2023-08-31T10:34:00;2.03;;;1.25;;
59828;SDS011;45708;51.848;107.620;2023-08-31T10:39:06;4.72;;;1.60;;
59828;SDS011;45708;51.848;107.620;2023-08-31T10:44:21;3.42;;;1.73;;
59828;SDS011;45708;51.848;107.620;2023-08-31T10:49:23;3.00;;;1.75;;
59828;SDS011;45708;51.848;107.620;2023-08-31T10:54:30;2.95;;;2.00;;
59828;SDS011;45708;51.848;107.620;2023-08-31T10:59:50;4.28;;;2.47;;
59828;SDS011;45708;51.848;107.620;2023-08-31T11:04:54;5.85;;;2.58;;
59828;SDS011;45708;51.848;107.620;2023-08-31T11:15:17;4.22;;;2.75;;
59828;SDS011;45708;51.848;107.620;2023-08-31T11:20:19;4.32;;;2.53;;
59828;SDS011;45708;51.848;107.620;2023-08-31T11:25:22;2.80;;;2.55;;
59828;SDS011;45708;51.848;107.620;2023-08-31T11:30:23;2.05;;;1.90;;
59828;SDS011;45708;51.848;107.620;2023-08-31T11:35:31;2.78;;;2.15;;
59828;SDS011;45708;51.848;107.620;2023-08-31T11:40:35;2.72;;;1.70;;
59828;SDS011;45708;51.848;107.620;2023-08-31T11:45:36;1.83;;;1.23;;
59828;SDS011;45708;51.848;107.620;2023-08-31T11:50:39;2.92;;;1.05;;
59828;SDS011;45708;51.848;107.620;2023-08-31T11:55:49;3.35;;;1.63;;
59828;SDS011;45708;51.848;107.620;2023-08-31T12:00:56;1.63;;;1.20;;
59828;SDS011;45708;51.848;107.620;2023-08-31T12:05:58;3.22;;;1.48;;
59828;SDS011;45708;51.848;107.620;2023-08-31T12:11:00;4.97;;;1.95;;
59828;SDS011;45708;51.848;107.620;2023-08-31T12:16:01;3.47;;;1.77;;
59828;SDS011;45708;51.848;107.620;2023-08-31T12:21:01;3.90;;;1.75;;
59828;SDS011;45708;51.848;107.620;2023-08-31T12:26:05;2.38;;;1.65;;
59828;SDS011;45708;51.848;107.620;2023-08-31T12:31:06;2.38;;;1.20;;
59828;SDS011;45708;51.848;107.620;2023-08-31T12:36:09;3.63;;;1.77;;
59828;SDS011;45708;51.848;107.620;2023-08-31T12:41:10;1.95;;;1.25;;
59828;SDS011;45708;51.848;107.620;2023-08-31T12:46:11;2.67;;;1.95;;
59828;SDS011;45708;51.848;107.620;2023-08-31T12:51:12;3.60;;;1.60;;
59828;SDS011;45708;51.848;107.620;2023-08-31T12:56:13;3.70;;;1.35;;
59828;SDS011;45708;51.848;107.620;2023-08-31T13:01:14;3.97;;;1.67;;
59828;SDS011;45708;51.848;107.620;2023-08-31T13:06:15;5.30;;;1.52;;
59828;SDS011;45708;51.848;107.620;2023-08-31T13:11:16;9.07;;;5.47;;
59828;SDS011;45708;51.848;107.620;2023-08-31T13:16:18;11.98;;;5.75;;
59828;SDS011;45708;51.848;107.620;2023-08-31T13:21:19;10.93;;;4.68;;
59828;SDS011;45708;51.848;107.620;2023-08-31T13:26:19;10.85;;;4.88;;
59828;SDS011;45708;51.848;107.620;2023-08-31T13:31:21;16.80;;;4.63;;
59828;SDS011;45708;51.848;107.620;2023-08-31T13:36:22;4.63;;;3.88;;
59828;SDS011;45708;51.848;107.620;2023-08-31T13:41:22;5.78;;;3.55;;
59828;SDS011;45708;51.848;107.620;2023-08-31T13:46:23;4.95;;;3.05;;
59828;SDS011;45708;51.848;107.620;2023-08-31T13:51:24;2.75;;;2.17;;
59828;SDS011;45708;51.848;107.620;2023-08-31T13:56:25;3.30;;;1.60;;
59828;SDS011;45708;51.848;107.620;2023-08-31T14:01:26;3.67;;;1.30;;
59828;SDS011;45708;51.848;107.620;2023-08-31T14:06:27;8.43;;;2.50;;
59828;SDS011;45708;51.848;107.620;2023-08-31T14:11:27;2.22;;;1.58;;
59828;SDS011;45708;51.848;107.620;2023-08-31T14:16:28;1.85;;;0.93;;
59828;SDS011;45708;51.848;107.620;2023-08-31T14:21:29;10.88;;;2.17;;
59828;SDS011;45708;51.848;107.620;2023-08-31T14:26:31;8.18;;;3.38;;
59828;SDS011;45708;51.848;107.620;2023-08-31T14:31:32;3.97;;;2.50;;
59828;SDS011;45708;51.848;107.620;2023-08-31T14:36:33;2.35;;;1.42;;
59828;SDS011;45708;51.848;107.620;2023-08-31T14:41:33;8.35;;;2.97;;
59828;SDS011;45708;51.848;107.620;2023-08-31T14:46:34;4.38;;;2.10;;
59828;SDS011;45708;51.848;107.620;2023-08-31T14:51:35;1.70;;;1.00;;
59828;SDS011;45708;51.848;107.620;2023-08-31T14:56:36;0.77;;;0.75;;
59828;SDS011;45708;51.848;107.620;2023-08-31T15:01:37;4.15;;;1.80;;
59828;SDS011;45708;51.848;107.620;2023-08-31T15:06:38;2.53;;;2.33;;
59828;SDS011;45708;51.848;107.620;2023-08-31T15:11:39;2.38;;;1.85;;
59828;SDS011;45708;51.848;107.620;2023-08-31T15:16:40;2.92;;;1.35;;
59828;SDS011;45708;51.848;107.620;2023-08-31T15:21:41;3.38;;;2.00;;
59828;SDS011;45708;51.848;107.620;2023-08-31T15:26:42;5.68;;;1.52;;
59828;SDS011;45708;51.848;107.620;2023-08-31T15:31:42;3.38;;;1.52;;
59828;SDS011;45708;51.848;107.620;2023-08-31T15:36:43;9.45;;;2.35;;
59828;SDS011;45708;51.848;107.620;2023-08-31T15:41:44;5.72;;;1.50;;
59828;SDS011;45708;51.848;107.620;2023-08-31T15:46:45;4.32;;;1.15;;
59828;SDS011;45708;51.848;107.620;2023-08-31T15:51:45;1.15;;;1.02;;
59828;SDS011;45708;51.848;107.620;2023-08-31T15:56:46;3.17;;;2.55;;
59828;SDS011;45708;51.848;107.620;2023-08-31T16:01:47;0.82;;;0.63;;
59828;SDS011;45708;51.848;107.620;2023-08-31T16:06:48;2.30;;;1.38;;
59828;SDS011;45708;51.848;107.620;2023-08-31T16:11:49;1.52;;;1.00;;
59828;SDS011;45708;51.848;107.620;2023-08-31T16:16:49;1.40;;;1.17;;
59828;SDS011;45708;51.848;107.620;2023-08-31T16:21:50;4.53;;;1.65;;
59828;SDS011;45708;51.848;107.620;2023-08-31T16:26:51;3.33;;;1.50;;
59828;SDS011;45708;51.848;107.620;2023-08-31T16:31:52;5.40;;;2.45;;
59828;SDS011;45708;51.848;107.620;2023-08-31T16:36:53;10.48;;;2.65;;
59828;SDS011;45708;51.848;107.620;2023-08-31T16:41:53;5.32;;;3.63;;
59828;SDS011;45708;51.848;107.620;2023-08-31T16:46:55;6.05;;;5.45;;
59828;SDS011;45708;51.848;107.620;2023-08-31T16:51:56;7.95;;;4.50;;
59828;SDS011;45708;51.848;107.620;2023-08-31T16:56:57;2.63;;;1.73;;
59828;SDS011;45708;51.848;107.620;2023-08-31T17:01:57;1.05;;;1.02;;
59828;SDS011;45708;51.848;107.620;2023-08-31T17:06:59;4.95;;;2.72;;
59828;SDS011;45708;51.848;107.620;2023-08-31T17:12:00;8.10;;;3.00;;
59828;SDS011;45708;51.848;107.620;2023-08-31T17:17:01;3.63;;;3.33;;
59828;SDS011;45708;51.848;107.620;2023-08-31T17:22:02;1.80;;;1.48;;
59828;SDS011;45708;51.848;107.620;2023-08-31T17:27:03;1.92;;;1.38;;
59828;SDS011;45708;51.848;107.620;2023-08-31T17:32:04;3.33;;;2.22;;
59828;SDS011;45708;51.848;107.620;2023-08-31T17:37:05;2.92;;;1.50;;
59828;SDS011;45708;51.848;107.620;2023-08-31T17:42:06;2.25;;;1.75;;
59828;SDS011;45708;51.848;107.620;2023-08-31T17:47:07;3.60;;;2.17;;
59828;SDS011;45708;51.848;107.620;2023-08-31T17:52:11;3.53;;;1.90;;
59828;SDS011;45708;51.848;107.620;2023-08-31T17:57:12;3.65;;;1.83;;
59828;SDS011;45708;51.848;107.620;2023-08-31T18:02:13;3.03;;;1.27;;
59828;SDS011;45708;51.848;107.620;2023-08-31T18:07:14;27.60;;;2.22;;
59828;SDS011;45708;51.848;107.620;2023-08-31T18:12:15;1.20;;;1.20;;
59828;SDS011;45708;51.848;107.620;2023-08-31T18:17:16;2.25;;;2.05;;
59828;SDS011;45708;51.848;107.620;2023-08-31T18:22:17;1.63;;;1.52;;
59828;SDS011;45708;51.848;107.620;2023-08-31T18:27:18;1.65;;;1.17;;
59828;SDS011;45708;51.848;107.620;2023-08-31T18:32:19;5.47;;;1.67;;
59828;SDS011;45708;51.848;107.620;2023-08-31T18:37:19;2.83;;;1.15;;
59828;SDS011;45708;51.848;107.620;2023-08-31T18:42:20;2.08;;;1.73;;
59828;SDS011;45708;51.848;107.620;2023-08-31T18:47:21;3.33;;;2.08;;
59828;SDS011;45708;51.848;107.620;2023-08-31T18:52:22;7.72;;;1.80;;
59828;SDS011;45708;51.848;107.620;2023-08-31T18:57:23;5.60;;;1.73;;
59828;SDS011;45708;51.848;107.620;2023-08-31T19:02:24;2.42;;;2.22;;
59828;SDS011;45708;51.848;107.620;2023-08-31T19:07:24;5.72;;;1.88;;
59828;SDS011;45708;51.848;107.620;2023-08-31T19:12:25;0.88;;;0.88;;
59828;SDS011;45708;51.848;107.620;2023-08-31T19:17:26;2.05;;;1.38;;
59828;SDS011;45708;51.848;107.620;2023-08-31T19:22:27;1.30;;;1.20;;
59828;SDS011;45708;51.848;107.620;2023-08-31T19:27:28;4.60;;;1.50;;
59828;SDS011;45708;51.848;107.620;2023-08-31T19:32:29;1.45;;;1.33;;
59828;SDS011;45708;51.848;107.620;2023-08-31T19:37:33;3.00;;;1.73;;
59828;SDS011;45708;51.848;107.620;2023-08-31T19:42:34;2.15;;;0.80;;
59828;SDS011;45708;51.848;107.620;2023-08-31T19:47:35;1.45;;;0.93;;
59828;SDS011;45708;51.848;107.620;2023-08-31T19:52:36;2.28;;;1.77;;
59828;SDS011;45708;51.848;107.620;2023-08-31T19:57:37;2.40;;;1.33;;
59828;SDS011;45708;51.848;107.620;2023-08-31T20:02:38;2.22;;;2.08;;
59828;SDS011;45708;51.848;107.620;2023-08-31T20:07:39;1.13;;;1.08;;
59828;SDS011;45708;51.848;107.620;2023-08-31T20:12:40;1.13;;;1.00;;
59828;SDS011;45708;51.848;107.620;2023-08-31T20:17:41;1.48;;;1.30;;
59828;SDS011;45708;51.848;107.620;2023-08-31T20:22:42;2.75;;;1.25;;
59828;SDS011;45708;51.848;107.620;2023-08-31T20:27:43;2.58;;;1.33;;
59828;SDS011;45708;51.848;107.620;2023-08-31T20:32:43;2.40;;;2.20;;
59828;SDS011;45708;51.848;107.620;2023-08-31T20:37:44;1.92;;;1.27;;
59828;SDS011;45708;51.848;107.620;2023-08-31T20:42:45;3.63;;;2.60;;
59828;SDS011;45708;51.848;107.620;2023-08-31T20:47:46;3.17;;;1.55;;
59828;SDS011;45708;51.848;107.620;2023-08-31T20:52:47;2.45;;;2.03;;
59828;SDS011;45708;51.848;107.620;2023-08-31T20:57:47;1.77;;;1.67;;
59828;SDS011;45708;51.848;107.620;2023-08-31T21:02:48;2.92;;;2.15;;
59828;SDS011;45708;51.848;107.620;2023-08-31T21:07:49;3.95;;;2.20;;
59828;SDS011;45708;51.848;107.620;2023-08-31T21:12:50;1.77;;;1.65;;
59828;SDS011;45708;51.848;107.620;2023-08-31T21:17:51;2.00;;;1.88;;
59828;SDS011;45708;51.848;107.620;2023-08-31T21:22:52;4.45;;;2.13;;
59828;SDS011;45708;51.848;107.620;2023-08-31T21:27:53;2.05;;;1.88;;
59828;SDS011;45708;51.848;107.620;2023-08-31T21:32:54;4.07;;;1.27;;
59828;SDS011;45708;51.848;107.620;2023-08-31T21:37:55;4.60;;;2.10;;
59828;SDS011;45708;51.848;107.620;2023-08-31T21:42:55;2.42;;;2.22;;
59828;SDS011;45708;51.848;107.620;2023-08-31T21:47:56;1.15;;;0.82;;
59828;SDS011;45708;51.848;107.620;2023-08-31T21:52:58;1.80;;;1.10;;
59828;SDS011;45708;51.848;107.620;2023-08-31T21:57:59;1.58;;;0.65;;
59828;SDS011;45708;51.848;107.620;2023-08-31T22:03:00;1.67;;;1.35;;
59828;SDS011;45708;51.848;107.620;2023-08-31T22:08:01;1.67;;;1.58;;
59828;SDS011;45708;51.848;107.620;2023-08-31T22:13:02;2.60;;;1.40;;
59828;SDS011;45708;51.848;107.620;2023-08-31T22:18:03;3.45;;;1.88;;
59828;SDS011;45708;51.848;107.620;2023-08-31T22:23:04;3.17;;;2.17;;
59828;SDS011;45708;51.848;107.620;2023-08-31T22:28:05;4.25;;;2.42;;
59828;SDS011;45708;51.848;107.620;2023-08-31T22:33:05;2.88;;;1.83;;
59828;SDS011;45708;51.848;107.620;2023-08-31T22:38:07;2.15;;;1.00;;
59828;SDS011;45708;51.848;107.620;2023-08-31T22:43:07;4.72;;;2.20;;
59828;SDS011;45708;51.848;107.620;2023-08-31T22:48:08;3.53;;;1.73;;
59828;SDS011;45708;51.848;107.620;2023-08-31T22:53:09;6.75;;;2.53;;
59828;SDS011;45708;51.848;107.620;2023-08-31T22:58:10;3.00;;;2.00;;
59828;SDS011;45708;51.848;107.620;2023-08-31T23:03:11;4.32;;;1.42;;
59828;SDS011;45708;51.848;107.620;2023-08-31T23:08:12;3.15;;;1.80;;
59828;SDS011;45708;51.848;107.620;2023-08-31T23:13:13;3.00;;;1.80;;
59828;SDS011;45708;51.848;107.620;2023-08-31T23:18:13;4.07;;;2.55;;
59828;SDS011;45708;51.848;107.620;2023-08-31T23:23:14;2.50;;;1.75;;
59828;SDS011;45708;51.848;107.620;2023-08-31T23:28:15;3.10;;;1.92;;
59828;SDS011;45708;51.848;107.620;2023-08-31T23:33:16;2.05;;;1.95;;
59828;SDS011;45708;51.848;107.620;2023-08-31T23:38:17;2.70;;;2.35;;
59828;SDS011;45708;51.848;107.620;2023-08-31T23:43:19;7.03;;;3.05;;
59828;SDS011;45708;51.848;107.620;2023-08-31T23:48:19;8.45;;;3.72;;
59828;SDS011;45708;51.848;107.620;2023-08-31T23:53:20;7.57;;;3.38;;
59828;SDS011;45708;51.848;107.620;2023-08-31T23:58:21;5.38;;;3.72;;
